• Join FlightAware (Why Join?)
  • Login
  • US Flag 
02:37PM EDT


 

Airport Tracker/Info


-or-


 

Live Flight TrackerFlight Track Log ✈ KAP444 ✈ 25-Apr-2013 ✈ KBOS - KACK

Flight Track Log - Related Links

Times and Time Zones

All times are in EDT time to prevent confusion due to time zone crossing. See the KAP444 flight status page for this flight to view local times or setup timezone preferences in your user account.

Time Position Orientation Groundspeed Altitude Reporting Facility
EDT Latitude Longitude Course Direction KTS MPH feet Rate Location/Type
05:23PM 42.3667 -71.0167 270° West 101 116 400  Level KA90
05:23PM 42.3667 -71.0333 270° West 113 130 1,000 840 Climbing KA90
05:24PM 42.3333 -71.0333 180° South 125 144 1,700 600 Climbing KA90
05:25PM 42.3000 -71.0500 200° South 132 152 2,200 480 Climbing KA90
05:26PM 42.2500 -71.0500 180° South 147 169 2,700 480 Climbing KA90
05:27PM 42.2167 -71.0167 143° Southeast 151 174 3,200 480 Climbing KA90
05:28PM 42.1833 -70.9833 143° Southeast 152 175 3,700 420 Climbing KA90
05:29PM 42.1500 -70.9500 143° Southeast 149 171 4,100 480 Climbing KA90
05:30PM 42.1167 -70.9167 143° Southeast 150 173 4,700 600 Climbing KA90
05:32PM 42.0754 -70.8750 143° Southeast  Level Estimated
05:39PM 41.8710 -70.6701 143° Southeast  Level Estimated
05:40PM 41.8418 -70.6409 143° Southeast  Level Estimated
05:41PM 41.8126 -70.6118 143° Southeast  Level Estimated
05:42PM 41.7834 -70.5827 143° Southeast  Level Estimated
05:43PM 41.7541 -70.5536 143° Southeast  Level Estimated
05:44PM 41.7249 -70.5245 143° Southeast  Level Estimated
05:45PM 41.6956 -70.4955 143° Southeast  Level Estimated
05:46PM 41.6664 -70.4665 143° Southeast  Level Estimated
05:47PM 41.6371 -70.4375 143° Southeast  Level Estimated
05:48PM 41.6078 -70.4085 144° Southeast  Level Estimated
05:49PM 41.5785 -70.3796 144° Southeast  Level Estimated
05:50PM 41.5492 -70.3507 144° Southeast  Level Estimated
05:51PM 41.5199 -70.3218 144° Southeast  Level Estimated
05:52PM 41.4906 -70.2929 144° Southeast  Level Estimated
05:53PM 41.4613 -70.2641 144° Southeast  Level Estimated
05:54PM 41.4320 -70.2353 144° Southeast  Level Estimated
05:55PM 41.4027 -70.2065 144° Southeast  Level Estimated
05:56PM 41.3733 -70.1778 144° Southeast  Level Estimated
05:57PM 41.3440 -70.1491 144° Southeast  Level Estimated
05:58PM 41.3146 -70.1204 144° Southeast  Level Estimated
05:59PM 41.2853 -70.0917 144° Southeast  Level Estimated
06:00PM 41.2559 -70.0630 144° Southeast  Level Estimated
06:01PM 41.2531 -70.0603 144° Southeast  Level Estimated
06:02PM 41.2531 -70.0603 72° East  Level Estimated
06:03PM 41.2531 -70.0603 72° East  Level Estimated
06:04PM 41.2531 -70.0603 72° East  Level Estimated
06:05PM 41.2531 -70.0603 72° East  Level Estimated
06:06PM 41.2531 -70.0603 72° East  Level Estimated
06:07PM 41.2531 -70.0603 72° East  Level Estimated
06:08PM 41.2531 -70.0603 72° East  Level Estimated
06:09PM 41.2531 -70.0603 72° East  Level Estimated
06:10PM 41.2531 -70.0603 72° East  Level Estimated
06:11PM 41.2531 -70.0603 72° East  Level Estimated
06:12PM 41.2531 -70.0603 72° East  Level Estimated
06:13PM 41.2531 -70.0603 72° East  Level Estimated
06:14PM 41.2531 -70.0603 72° East  Level Estimated
06:15PM 41.2531 -70.0603 72° East  Level Estimated
06:16PM 41.2531 -70.0603 72° East  Level Estimated
06:17PM 41.2531 -70.0603 72° East  Level Estimated
06:18PM 41.2531 -70.0603 72° East  Level Estimated
06:19PM 41.2531 -70.0603 72° East  Level Estimated
06:20PM 41.2531 -70.0603 72° East  Level Estimated
06:21PM 41.2531 -70.0603 72° East  Level Estimated